createdAt,value
2023-10-18T00:00:26.666Z,15.13
2023-10-18T00:02:55.363Z,15.10
2023-10-18T00:05:23.994Z,15.11
2023-10-18T00:07:53.151Z,15.12
2023-10-18T00:10:22.803Z,15.08
2023-10-18T00:12:53.964Z,15.07
2023-10-18T00:15:22.187Z,15.05
2023-10-18T00:17:50.252Z,15.03
2023-10-18T00:20:22.192Z,15.02
2023-10-18T00:22:50.173Z,14.99
2023-10-18T00:25:18.256Z,14.99
2023-10-18T00:27:47.264Z,14.99
2023-10-18T00:30:19.368Z,14.97
2023-10-18T00:32:47.849Z,14.98
2023-10-18T00:35:19.943Z,14.98
2023-10-18T00:37:49.057Z,14.95
2023-10-18T00:40:34.434Z,14.94
2023-10-18T00:43:08.840Z,14.92
2023-10-18T00:45:45.212Z,14.92
2023-10-18T00:48:14.440Z,14.92
2023-10-18T00:50:44.793Z,14.92
2023-10-18T00:53:18.557Z,14.92
2023-10-18T00:55:46.993Z,14.91
2023-10-18T00:58:16.692Z,14.89
2023-10-18T01:00:46.422Z,14.86
2023-10-18T01:03:16.790Z,14.88
2023-10-18T01:06:02.163Z,14.87
2023-10-18T01:08:31.513Z,14.86
2023-10-18T01:11:04.969Z,14.85
2023-10-18T01:13:35.860Z,14.84
2023-10-18T01:16:08.194Z,14.82
2023-10-18T01:18:36.147Z,14.84
2023-10-18T01:21:15.458Z,14.82
2023-10-18T01:23:50.707Z,14.82
2023-10-18T01:26:20.771Z,14.80
2023-10-18T01:28:48.989Z,14.76
2023-10-18T01:31:17.024Z,14.75
2023-10-18T01:33:47.249Z,14.74
2023-10-18T01:36:16.616Z,14.72
2023-10-18T01:38:47.300Z,14.72
2023-10-18T01:41:18.153Z,14.71
2023-10-18T01:43:49.050Z,14.70
2023-10-18T01:46:17.494Z,14.68
2023-10-18T01:48:51.694Z,14.68
2023-10-18T01:51:20.520Z,14.67
2023-10-18T01:53:51.591Z,14.65
2023-10-18T01:56:21.265Z,14.66
2023-10-18T01:58:50.506Z,14.64
2023-10-18T02:01:18.477Z,14.61
2023-10-18T02:03:47.030Z,14.60
2023-10-18T02:06:16.707Z,14.60
2023-10-18T02:08:44.898Z,14.58
2023-10-18T02:11:13.079Z,14.59
2023-10-18T02:13:42.896Z,14.60
2023-10-18T02:16:16.512Z,14.60
2023-10-18T02:18:47.800Z,14.61
2023-10-18T02:21:16.207Z,14.61
2023-10-18T02:23:48.014Z,14.60
2023-10-18T02:26:31.611Z,14.57
2023-10-18T02:29:00.876Z,14.55
2023-10-18T02:31:31.591Z,14.56
2023-10-18T02:33:59.482Z,14.52
2023-10-18T02:36:34.251Z,14.54
2023-10-18T02:39:02.300Z,14.55
2023-10-18T02:41:30.785Z,14.52
2023-10-18T02:43:59.561Z,14.48
2023-10-18T02:46:28.100Z,14.47
2023-10-18T02:48:58.621Z,14.45
2023-10-18T02:51:28.061Z,14.46
2023-10-18T02:54:04.044Z,14.43
2023-10-18T02:56:34.177Z,14.43
2023-10-18T02:59:08.109Z,14.45
2023-10-18T03:01:38.008Z,14.46
2023-10-18T03:04:09.990Z,14.47
2023-10-18T03:06:38.710Z,14.45
2023-10-18T03:09:15.372Z,14.47
2023-10-18T03:11:43.908Z,14.47
2023-10-18T03:14:13.631Z,14.45
2023-10-18T03:16:42.649Z,14.43
2023-10-18T03:19:13.421Z,14.40
2023-10-18T03:21:43.138Z,14.39
2023-10-18T03:24:13.497Z,14.38
2023-10-18T03:26:42.187Z,14.36
2023-10-18T03:29:13.452Z,14.35
2023-10-18T03:34:16.275Z,14.35
2023-10-18T03:36:53.319Z,14.35
2023-10-18T03:39:22.144Z,14.36
2023-10-18T03:41:51.819Z,14.32
2023-10-18T03:44:28.024Z,14.31
2023-10-18T03:47:04.679Z,14.31
2023-10-18T03:49:37.830Z,14.29
2023-10-18T03:52:18.633Z,14.27
2023-10-18T03:54:48.682Z,14.26
2023-10-18T03:57:20.114Z,14.27
2023-10-18T03:59:50.345Z,14.28
2023-10-18T04:02:27.482Z,14.25
2023-10-18T04:05:01.029Z,14.25
2023-10-18T04:07:30.701Z,14.24
2023-10-18T04:10:13.108Z,14.22
2023-10-18T04:12:44.801Z,14.23
2023-10-18T04:15:20.536Z,14.21
2023-10-18T04:17:51.067Z,14.20
2023-10-18T04:20:24.907Z,14.18
2023-10-18T04:22:54.373Z,14.18
2023-10-18T04:25:27.967Z,14.16
2023-10-18T04:27:55.770Z,14.17
2023-10-18T04:30:24.576Z,14.16
2023-10-18T04:32:59.870Z,14.16
2023-10-18T04:35:30.658Z,14.15
2023-10-18T04:37:58.462Z,14.18
2023-10-18T04:40:27.351Z,14.17
2023-10-18T04:42:57.734Z,14.16
2023-10-18T04:45:27.716Z,14.16
2023-10-18T04:48:07.332Z,14.14
2023-10-18T04:50:35.510Z,14.15
2023-10-18T04:53:11.839Z,14.14
2023-10-18T04:55:42.588Z,14.12
2023-10-18T04:58:12.804Z,14.13
2023-10-18T05:00:53.347Z,14.13
2023-10-18T05:03:21.415Z,14.13
2023-10-18T05:05:53.832Z,14.12
2023-10-18T05:08:21.631Z,14.12
2023-10-18T05:10:53.103Z,14.10
2023-10-18T05:13:33.462Z,14.09
2023-10-18T05:16:02.415Z,14.10
2023-10-18T05:18:31.269Z,14.08
2023-10-18T05:21:00.403Z,14.06
2023-10-18T05:23:28.168Z,14.07
2023-10-18T05:26:09.676Z,14.06
2023-10-18T05:28:48.186Z,14.05
2023-10-18T05:31:33.528Z,14.05
2023-10-18T05:34:05.923Z,14.06
2023-10-18T05:36:43.880Z,14.05
2023-10-18T05:39:28.901Z,14.08
2023-10-18T05:42:04.612Z,14.06
2023-10-18T05:44:32.652Z,14.03
2023-10-18T05:47:01.039Z,14.03
2023-10-18T05:49:35.556Z,14.02
2023-10-18T05:52:18.701Z,14.01
2023-10-18T05:54:47.732Z,14.01
2023-10-18T05:57:20.270Z,14.01
2023-10-18T05:59:50.004Z,14.01
2023-10-18T06:02:24.067Z,14.00
2023-10-18T06:04:56.155Z,14.00
2023-10-18T06:07:28.221Z,14.00
2023-10-18T06:10:01.886Z,13.99
2023-10-18T06:12:31.638Z,13.98
2023-10-18T06:15:13.681Z,13.99
2023-10-18T06:17:48.706Z,13.98
2023-10-18T06:20:25.139Z,13.98
2023-10-18T06:23:08.264Z,14.00
2023-10-18T06:25:37.000Z,14.00
2023-10-18T06:28:08.177Z,13.98
2023-10-18T06:30:41.126Z,13.99
2023-10-18T06:33:14.087Z,13.99
2023-10-18T06:35:46.303Z,13.98
2023-10-18T06:38:18.864Z,13.99
2023-10-18T06:41:04.442Z,14.01
2023-10-18T06:43:33.619Z,14.01
2023-10-18T06:46:01.565Z,14.00
2023-10-18T06:48:30.386Z,14.00
2023-10-18T06:50:58.856Z,14.01
2023-10-18T06:53:28.180Z,14.01
2023-10-18T06:56:02.930Z,14.01
2023-10-18T06:58:43.323Z,14.02
2023-10-18T07:01:15.862Z,14.01
2023-10-18T07:03:45.017Z,14.01
2023-10-18T07:06:19.592Z,14.02
2023-10-18T07:08:51.195Z,14.02
2023-10-18T07:11:26.219Z,14.03
2023-10-18T07:13:55.398Z,14.04
2023-10-18T07:16:37.110Z,14.03
2023-10-18T07:19:22.545Z,14.02
2023-10-18T07:21:50.950Z,14.01
2023-10-18T07:24:21.901Z,14.01
2023-10-18T07:26:50.702Z,14.01
2023-10-18T07:29:22.067Z,13.99
2023-10-18T07:31:50.010Z,13.99
2023-10-18T07:34:27.089Z,14.00
2023-10-18T07:36:55.798Z,14.01
2023-10-18T07:39:26.752Z,14.01
2023-10-18T07:41:56.291Z,14.02
2023-10-18T07:44:24.410Z,14.02
2023-10-18T07:46:52.115Z,14.03
2023-10-18T07:49:20.288Z,14.05
2023-10-18T07:51:56.971Z,14.07
2023-10-18T07:54:26.104Z,14.07
2023-10-18T07:56:55.295Z,14.07
2023-10-18T07:59:31.872Z,14.09
2023-10-18T08:02:20.774Z,14.09
2023-10-18T08:04:49.416Z,14.08
2023-10-18T08:07:21.128Z,14.09
2023-10-18T08:09:52.663Z,14.09
2023-10-18T08:12:29.854Z,14.07
2023-10-18T08:14:58.924Z,14.09
2023-10-18T08:17:44.414Z,14.10
2023-10-18T08:20:51.631Z,14.10
2023-10-18T08:23:36.018Z,14.11
2023-10-18T08:26:05.654Z,14.13
2023-10-18T08:28:42.166Z,14.12
2023-10-18T08:31:17.895Z,14.12
2023-10-18T08:33:47.937Z,14.12
2023-10-18T08:36:15.948Z,14.15
2023-10-18T08:38:45.898Z,14.17
2023-10-18T08:41:17.217Z,14.17
2023-10-18T08:44:00.744Z,14.19
2023-10-18T08:46:28.894Z,14.19
2023-10-18T08:48:58.474Z,14.20
2023-10-18T08:51:28.954Z,14.19
2023-10-18T08:53:58.550Z,14.21
2023-10-18T08:56:30.361Z,14.17
2023-10-18T08:59:02.168Z,14.17
2023-10-18T09:01:35.621Z,14.16
2023-10-18T09:04:02.868Z,14.17
2023-10-18T09:06:33.020Z,14.19
2023-10-18T09:09:06.594Z,14.21
2023-10-18T09:11:37.983Z,14.22
2023-10-18T09:14:08.701Z,14.24
2023-10-18T09:16:38.755Z,14.28
2023-10-18T09:19:09.069Z,14.32
2023-10-18T09:21:44.736Z,14.36
2023-10-18T09:24:13.550Z,14.35
2023-10-18T09:26:45.246Z,14.39
2023-10-18T09:29:13.094Z,14.40
2023-10-18T09:31:54.552Z,14.41
2023-10-18T09:34:24.550Z,14.42
2023-10-18T09:36:57.606Z,14.41
2023-10-18T09:39:38.262Z,14.41
2023-10-18T09:42:13.563Z,14.41
2023-10-18T09:44:42.671Z,14.40
2023-10-18T09:47:11.037Z,14.43
2023-10-18T09:49:41.543Z,14.45
2023-10-18T09:52:13.012Z,14.47
2023-10-18T09:54:50.198Z,14.48
2023-10-18T09:57:25.752Z,14.51
2023-10-18T09:59:56.432Z,14.54
2023-10-18T10:02:25.507Z,14.56
2023-10-18T10:04:55.624Z,14.59
2023-10-18T10:07:40.605Z,14.56
2023-10-18T10:10:10.840Z,14.58
2023-10-18T10:12:43.316Z,14.55
2023-10-18T10:15:15.426Z,14.51
2023-10-18T10:17:48.587Z,14.50
2023-10-18T10:20:22.875Z,14.52
2023-10-18T10:22:51.865Z,14.54
2023-10-18T10:28:16.577Z,14.69
2023-10-18T10:30:44.974Z,14.74
2023-10-18T10:33:14.188Z,14.79
2023-10-18T10:35:47.729Z,14.83
2023-10-18T10:37:36.025Z,14.62
2023-10-18T10:38:19.818Z,14.84
2023-10-18T10:40:50.648Z,14.86
2023-10-18T10:43:20.890Z,14.88
2023-10-18T10:45:55.946Z,14.92
2023-10-18T10:48:37.958Z,14.99
2023-10-18T10:51:14.752Z,15.00
2023-10-18T10:53:49.522Z,15.04
2023-10-18T10:56:21.729Z,15.05
2023-10-18T10:59:04.229Z,15.03
2023-10-18T11:02:07.034Z,15.03
2023-10-18T11:04:51.478Z,15.05
2023-10-18T11:07:26.501Z,15.03
2023-10-18T11:10:00.776Z,15.00
2023-10-18T11:12:30.744Z,14.97
2023-10-18T11:15:03.075Z,14.92
2023-10-18T11:17:31.045Z,14.85
2023-10-18T11:20:00.280Z,14.83
2023-10-18T11:22:31.244Z,14.78
2023-10-18T11:25:01.399Z,14.78
2023-10-18T11:27:34.609Z,14.78
2023-10-18T11:30:16.675Z,14.79
2023-10-18T11:32:44.829Z,14.78
2023-10-18T11:35:14.044Z,14.76
2023-10-18T11:37:45.676Z,14.79
2023-10-18T11:40:17.176Z,14.82
2023-10-18T11:42:55.988Z,14.87
2023-10-18T11:45:29.244Z,14.87
2023-10-18T11:47:57.535Z,14.90
2023-10-18T11:50:25.745Z,14.88
2023-10-18T11:52:53.692Z,14.85
2023-10-18T11:55:24.017Z,14.85
2023-10-18T11:57:52.155Z,14.90
2023-10-18T12:00:27.262Z,14.97
2023-10-18T12:02:57.280Z,15.03
2023-10-18T12:05:29.038Z,15.14
2023-10-18T12:08:02.875Z,15.23
2023-10-18T12:10:36.521Z,15.25
2023-10-18T12:13:07.489Z,15.25
2023-10-18T12:15:35.932Z,15.23
2023-10-18T12:18:06.537Z,15.24
2023-10-18T12:20:38.039Z,15.23
2023-10-18T12:25:39.665Z,15.25
2023-10-18T12:28:13.195Z,15.23
2023-10-18T12:30:42.661Z,15.20
2023-10-18T12:33:20.472Z,15.20
2023-10-18T12:35:50.041Z,15.22
2023-10-18T12:38:22.066Z,15.23
2023-10-18T12:40:59.614Z,15.17
2023-10-18T12:43:28.247Z,15.12
2023-10-18T12:45:56.262Z,15.07
2023-10-18T12:48:25.664Z,15.04
2023-10-18T12:50:54.423Z,15.06
2023-10-18T12:53:36.509Z,15.14
2023-10-18T12:56:32.119Z,15.26
2023-10-18T12:59:00.320Z,15.31
2023-10-18T13:01:34.043Z,15.28
2023-10-18T13:04:07.884Z,15.22
2023-10-18T13:06:43.195Z,15.21
2023-10-18T13:09:19.756Z,15.22
2023-10-18T13:12:01.414Z,15.25
2023-10-18T13:14:32.457Z,15.32
2023-10-18T13:17:03.821Z,15.34
2023-10-18T13:19:34.268Z,15.34
2023-10-18T13:22:02.125Z,15.34
2023-10-18T13:24:32.787Z,15.32
2023-10-18T13:27:01.713Z,15.26
2023-10-18T13:29:33.155Z,15.24
2023-10-18T13:32:11.334Z,15.25
2023-10-18T13:34:43.875Z,15.30
2023-10-18T13:37:15.316Z,15.35
2023-10-18T13:39:48.630Z,15.32
2023-10-18T13:42:16.485Z,15.31
2023-10-18T13:44:44.171Z,15.34
2023-10-18T13:47:14.245Z,15.36
2023-10-18T13:49:45.110Z,15.41
2023-10-18T13:52:13.349Z,15.50
2023-10-18T13:54:42.066Z,15.58
2023-10-18T13:57:10.855Z,15.70
2023-10-18T13:59:39.322Z,15.82
2023-10-18T14:02:08.375Z,15.96
2023-10-18T14:04:36.343Z,16.04
2023-10-18T14:07:07.082Z,16.12
2023-10-18T14:09:36.573Z,16.22
2023-10-18T14:12:05.440Z,16.30
2023-10-18T14:14:37.623Z,16.36
2023-10-18T14:17:05.734Z,16.40
2023-10-18T14:19:34.152Z,16.47
2023-10-18T14:22:03.262Z,16.55
2023-10-18T14:24:32.800Z,16.58
2023-10-18T14:27:01.318Z,16.60
2023-10-18T14:29:30.549Z,16.66
2023-10-18T14:31:58.620Z,16.70
2023-10-18T14:34:29.102Z,16.74
2023-10-18T14:36:57.696Z,16.75
2023-10-18T14:39:38.593Z,16.79
2023-10-18T14:42:09.279Z,16.82
2023-10-18T14:44:37.476Z,16.84
2023-10-18T14:47:07.351Z,16.86
2023-10-18T14:49:35.399Z,16.89
2023-10-18T14:52:12.125Z,16.95
2023-10-18T14:54:42.284Z,16.99
2023-10-18T14:57:11.392Z,17.01
2023-10-18T14:59:39.418Z,17.03
2023-10-18T15:02:07.712Z,17.04
2023-10-18T15:04:35.354Z,17.08
2023-10-18T15:07:03.052Z,17.10
2023-10-18T15:09:30.940Z,17.13
2023-10-18T15:11:58.684Z,17.14
2023-10-18T15:14:28.139Z,17.12
2023-10-18T15:16:56.003Z,17.09
2023-10-18T15:19:23.749Z,17.05
2023-10-18T15:21:51.531Z,17.04
2023-10-18T15:24:19.293Z,17.02
2023-10-18T15:26:46.991Z,17.00
2023-10-18T15:29:18.773Z,16.98
2023-10-18T15:31:48.739Z,16.98
2023-10-18T15:34:16.345Z,16.97
2023-10-18T15:36:48.412Z,17.01
2023-10-18T15:39:19.595Z,16.96
2023-10-18T15:41:47.714Z,16.92
2023-10-18T15:44:16.236Z,16.89
2023-10-18T15:46:43.985Z,16.89
2023-10-18T15:49:15.772Z,16.84
2023-10-18T15:51:44.198Z,16.80
2023-10-18T15:54:12.522Z,16.79
2023-10-18T15:56:40.934Z,16.77
2023-10-18T15:59:10.003Z,16.75
2023-10-18T16:01:51.481Z,16.76
2023-10-18T16:04:27.750Z,16.72
2023-10-18T16:06:56.950Z,16.69
2023-10-18T16:09:28.367Z,16.68
2023-10-18T16:11:55.970Z,16.68
2023-10-18T16:14:23.695Z,16.64
2023-10-18T16:16:52.551Z,16.64
2023-10-18T16:19:20.300Z,16.64
2023-10-18T16:21:49.295Z,16.62
2023-10-18T16:24:18.455Z,16.59
2023-10-18T16:26:46.106Z,16.58
2023-10-18T16:29:14.764Z,16.56
2023-10-18T16:31:43.150Z,16.54
2023-10-18T16:34:10.836Z,16.52
2023-10-18T16:36:39.136Z,16.51
2023-10-18T16:39:09.133Z,16.49
2023-10-18T16:41:36.888Z,16.47
2023-10-18T16:44:04.892Z,16.46
2023-10-18T16:46:32.860Z,16.46
2023-10-18T16:49:00.662Z,16.45
2023-10-18T16:51:29.206Z,16.47
2023-10-18T16:53:57.171Z,16.47
2023-10-18T16:56:26.865Z,16.49
2023-10-18T16:58:57.904Z,16.49
2023-10-18T17:01:26.289Z,16.45
2023-10-18T17:03:54.198Z,16.41
2023-10-18T17:06:22.645Z,16.38
2023-10-18T17:08:51.091Z,16.37
2023-10-18T17:11:19.488Z,16.35
2023-10-18T17:13:49.454Z,16.33
2023-10-18T17:16:18.118Z,16.34
2023-10-18T17:18:46.410Z,16.32
2023-10-18T17:23:45.735Z,16.30
2023-10-18T17:26:16.136Z,16.27
2023-10-18T17:28:44.602Z,16.26
2023-10-18T17:31:14.575Z,16.26
2023-10-18T17:33:42.270Z,16.27
2023-10-18T17:36:11.768Z,16.26
2023-10-18T17:38:39.606Z,16.24
2023-10-18T17:41:07.369Z,16.24
2023-10-18T17:43:35.058Z,16.22
2023-10-18T17:46:02.782Z,16.21
2023-10-18T17:48:31.751Z,16.21
2023-10-18T17:50:59.493Z,16.20
2023-10-18T17:53:27.205Z,16.19
2023-10-18T17:55:55.207Z,16.16
2023-10-18T17:58:28.397Z,16.15
2023-10-18T18:01:06.098Z,16.14
2023-10-18T18:03:35.302Z,16.16
2023-10-18T18:06:11.452Z,16.16
2023-10-18T18:08:39.381Z,16.16
2023-10-18T18:11:09.155Z,16.15
2023-10-18T18:13:38.178Z,16.15
2023-10-18T18:16:07.122Z,16.15
2023-10-18T18:18:36.188Z,16.14
2023-10-18T18:21:05.686Z,16.14
2023-10-18T18:23:33.401Z,16.13
2023-10-18T18:26:07.948Z,16.14
2023-10-18T18:28:37.669Z,16.13
2023-10-18T18:31:05.709Z,16.14
2023-10-18T18:33:33.551Z,16.13
2023-10-18T18:36:02.712Z,16.13
2023-10-18T18:38:30.425Z,16.16
2023-10-18T18:40:58.279Z,16.17
2023-10-18T18:43:28.932Z,16.16
2023-10-18T18:46:00.484Z,16.14
2023-10-18T18:48:28.413Z,16.17
2023-10-18T18:50:56.120Z,16.14
2023-10-18T18:53:25.290Z,16.12
2023-10-18T18:55:53.015Z,16.10
2023-10-18T18:58:21.090Z,16.11
2023-10-18T19:00:49.385Z,16.11
2023-10-18T19:03:17.457Z,16.09
2023-10-18T19:05:46.163Z,16.10
2023-10-18T19:08:14.248Z,16.10
2023-10-18T19:10:43.613Z,16.09
2023-10-18T19:13:12.852Z,16.10
2023-10-18T19:15:40.570Z,16.10
2023-10-18T19:18:08.747Z,16.10
2023-10-18T19:20:36.695Z,16.11
2023-10-18T19:23:04.988Z,16.11
2023-10-18T19:25:32.916Z,16.13
2023-10-18T19:28:02.078Z,16.14
2023-10-18T19:30:29.992Z,16.12
2023-10-18T19:32:57.973Z,16.12
2023-10-18T19:35:25.915Z,16.12
2023-10-18T19:37:54.295Z,16.11
2023-10-18T19:40:23.301Z,16.10
2023-10-18T19:42:51.139Z,16.10
2023-10-18T19:45:23.081Z,16.08
2023-10-18T19:47:50.969Z,16.08
2023-10-18T19:50:19.401Z,16.06
2023-10-18T19:52:47.241Z,16.07
2023-10-18T19:55:14.977Z,16.07
2023-10-18T19:57:43.801Z,16.05
2023-10-18T20:00:16.278Z,16.02
2023-10-18T20:02:45.590Z,16.03
2023-10-18T20:05:15.390Z,16.02
2023-10-18T20:07:43.329Z,16.00
2023-10-18T20:10:12.293Z,15.99
2023-10-18T20:12:40.065Z,15.99
2023-10-18T20:15:09.753Z,15.98
2023-10-18T20:17:37.535Z,15.98
2023-10-18T20:20:10.000Z,15.96
2023-10-18T20:22:40.662Z,15.98
2023-10-18T20:25:09.099Z,15.95
2023-10-18T20:27:36.833Z,15.96
2023-10-18T20:30:07.025Z,15.94
2023-10-18T20:32:35.578Z,15.94
2023-10-18T20:35:03.429Z,15.93
2023-10-18T20:37:32.678Z,15.92
2023-10-18T20:40:03.751Z,15.92
2023-10-18T20:42:33.765Z,15.90
2023-10-18T20:45:02.115Z,15.90
2023-10-18T20:47:29.800Z,15.89
2023-10-18T20:49:57.535Z,15.89
2023-10-18T20:52:32.167Z,15.88
2023-10-18T20:55:01.303Z,15.87
2023-10-18T20:57:32.040Z,15.86
2023-10-18T20:59:59.720Z,15.86
2023-10-18T21:02:27.683Z,15.87
2023-10-18T21:04:56.221Z,15.85
2023-10-18T21:07:26.150Z,15.84
2023-10-18T21:09:54.743Z,15.82
2023-10-18T21:12:27.541Z,15.82
2023-10-18T21:14:55.495Z,15.82
2023-10-18T21:17:23.357Z,15.81
2023-10-18T21:19:51.268Z,15.81
2023-10-18T21:22:21.328Z,15.81
2023-10-18T21:24:50.145Z,15.80
2023-10-18T21:27:18.331Z,15.79
2023-10-18T21:29:47.439Z,15.79
2023-10-18T21:32:15.324Z,15.78
2023-10-18T21:34:44.152Z,15.77
2023-10-18T21:37:12.715Z,15.77
2023-10-18T21:39:40.446Z,15.76
2023-10-18T21:42:08.528Z,15.75
2023-10-18T21:44:36.386Z,15.75
2023-10-18T21:47:05.756Z,15.76
2023-10-18T21:49:33.450Z,15.75
2023-10-18T21:52:01.698Z,15.75
2023-10-18T21:54:29.566Z,15.74
2023-10-18T21:56:57.387Z,15.72
2023-10-18T21:59:25.009Z,15.72
2023-10-18T22:01:53.797Z,15.72
2023-10-18T22:04:23.646Z,15.70
2023-10-18T22:06:55.405Z,15.70
2023-10-18T22:09:32.450Z,15.71
2023-10-18T22:12:03.999Z,15.69
2023-10-18T22:14:32.635Z,15.67
2023-10-18T22:17:06.633Z,15.67
2023-10-18T22:19:37.899Z,15.65
2023-10-18T22:22:13.803Z,15.66
2023-10-18T22:24:41.993Z,15.64
2023-10-18T22:27:15.833Z,15.65
2023-10-18T22:29:48.098Z,15.63
2023-10-18T22:32:19.806Z,15.64
2023-10-18T22:34:51.360Z,15.62
2023-10-18T22:37:21.695Z,15.63
2023-10-18T22:39:51.749Z,15.61
2023-10-18T22:42:23.882Z,15.61
2023-10-18T22:45:10.022Z,15.60
2023-10-18T22:47:45.034Z,15.60
2023-10-18T22:50:22.581Z,15.59
2023-10-18T22:52:53.968Z,15.59
2023-10-18T22:55:23.410Z,15.59
2023-10-18T22:57:55.858Z,15.58
2023-10-18T23:00:32.338Z,15.57
2023-10-18T23:03:02.298Z,15.57
2023-10-18T23:05:32.179Z,15.58
2023-10-18T23:08:00.960Z,15.58
2023-10-18T23:10:46.712Z,15.58
2023-10-18T23:13:38.518Z,15.57
2023-10-18T23:16:11.567Z,15.54
2023-10-18T23:18:55.269Z,15.56
2023-10-18T23:21:29.966Z,15.54
2023-10-18T23:24:08.132Z,15.54
2023-10-18T23:26:53.385Z,15.54
2023-10-18T23:29:21.466Z,15.54
2023-10-18T23:32:10.793Z,15.52
2023-10-18T23:34:44.429Z,15.52
2023-10-18T23:37:15.440Z,15.51
2023-10-18T23:39:44.473Z,15.50
2023-10-18T23:42:15.580Z,15.49
2023-10-18T23:44:56.937Z,15.48
2023-10-18T23:47:51.101Z,15.48
2023-10-18T23:50:24.214Z,15.49
2023-10-18T23:52:58.866Z,15.47
2023-10-18T23:55:35.064Z,15.47
2023-10-18T23:58:06.847Z,15.46
